sensor_id;sensor_type;location;lat;lon;timestamp;P1;durP1;ratioP1;P2;durP2;ratioP2
20458;SDS011;10388;52.314;7.938;2023-09-19T00:01:17;5.37;;;2.50;;
20458;SDS011;10388;52.314;7.938;2023-09-19T00:03:50;3.87;;;2.30;;
20458;SDS011;10388;52.314;7.938;2023-09-19T00:06:20;5.53;;;2.50;;
20458;SDS011;10388;52.314;7.938;2023-09-19T00:08:51;5.07;;;2.03;;
20458;SDS011;10388;52.314;7.938;2023-09-19T00:11:22;5.13;;;2.27;;
20458;SDS011;10388;52.314;7.938;2023-09-19T00:14:14;5.90;;;2.67;;
20458;SDS011;10388;52.314;7.938;2023-09-19T00:16:49;4.17;;;2.37;;
20458;SDS011;10388;52.314;7.938;2023-09-19T00:19:19;6.67;;;2.40;;
20458;SDS011;10388;52.314;7.938;2023-09-19T00:21:56;4.80;;;1.87;;
20458;SDS011;10388;52.314;7.938;2023-09-19T00:24:26;4.83;;;2.37;;
20458;SDS011;10388;52.314;7.938;2023-09-19T00:26:58;4.47;;;2.13;;
20458;SDS011;10388;52.314;7.938;2023-09-19T00:29:29;6.87;;;2.60;;
20458;SDS011;10388;52.314;7.938;2023-09-19T00:32:01;3.60;;;1.87;;
20458;SDS011;10388;52.314;7.938;2023-09-19T00:34:35;7.63;;;2.27;;
20458;SDS011;10388;52.314;7.938;2023-09-19T00:37:05;3.30;;;2.00;;
20458;SDS011;10388;52.314;7.938;2023-09-19T00:39:41;5.23;;;2.30;;
20458;SDS011;10388;52.314;7.938;2023-09-19T00:42:17;8.83;;;2.37;;
20458;SDS011;10388;52.314;7.938;2023-09-19T00:44:50;4.17;;;2.23;;
20458;SDS011;10388;52.314;7.938;2023-09-19T00:47:21;3.40;;;2.00;;
20458;SDS011;10388;52.314;7.938;2023-09-19T00:49:52;3.53;;;2.03;;
20458;SDS011;10388;52.314;7.938;2023-09-19T00:52:23;6.77;;;2.73;;
20458;SDS011;10388;52.314;7.938;2023-09-19T00:54:54;6.00;;;2.37;;
20458;SDS011;10388;52.314;7.938;2023-09-19T00:57:26;6.97;;;2.47;;
20458;SDS011;10388;52.314;7.938;2023-09-19T00:59:57;8.80;;;2.60;;
20458;SDS011;10388;52.314;7.938;2023-09-19T01:02:28;7.83;;;2.63;;
20458;SDS011;10388;52.314;7.938;2023-09-19T01:05:00;6.20;;;2.53;;
20458;SDS011;10388;52.314;7.938;2023-09-19T01:07:38;6.03;;;2.53;;
20458;SDS011;10388;52.314;7.938;2023-09-19T01:10:11;5.43;;;2.73;;
20458;SDS011;10388;52.314;7.938;2023-09-19T01:17:59;6.70;;;2.13;;
20458;SDS011;10388;52.314;7.938;2023-09-19T01:20:37;6.87;;;2.50;;
20458;SDS011;10388;52.314;7.938;2023-09-19T01:23:20;8.80;;;2.60;;
20458;SDS011;10388;52.314;7.938;2023-09-19T01:29:13;4.50;;;2.00;;
20458;SDS011;10388;52.314;7.938;2023-09-19T01:32:09;8.80;;;2.90;;
20458;SDS011;10388;52.314;7.938;2023-09-19T01:37:22;6.27;;;2.63;;
20458;SDS011;10388;52.314;7.938;2023-09-19T01:39:59;5.87;;;2.50;;
20458;SDS011;10388;52.314;7.938;2023-09-19T01:54:50;10.70;;;2.70;;
20458;SDS011;10388;52.314;7.938;2023-09-19T02:00:01;7.87;;;2.37;;
20458;SDS011;10388;52.314;7.938;2023-09-19T02:02:37;6.77;;;2.30;;
20458;SDS011;10388;52.314;7.938;2023-09-19T02:05:09;6.27;;;3.03;;
20458;SDS011;10388;52.314;7.938;2023-09-19T02:07:40;5.63;;;2.50;;
20458;SDS011;10388;52.314;7.938;2023-09-19T02:10:11;7.63;;;2.67;;
20458;SDS011;10388;52.314;7.938;2023-09-19T02:12:42;7.37;;;2.60;;
20458;SDS011;10388;52.314;7.938;2023-09-19T02:15:12;6.63;;;2.40;;
20458;SDS011;10388;52.314;7.938;2023-09-19T02:17:45;7.23;;;2.73;;
20458;SDS011;10388;52.314;7.938;2023-09-19T02:20:16;7.90;;;2.47;;
20458;SDS011;10388;52.314;7.938;2023-09-19T02:22:47;9.23;;;2.60;;
20458;SDS011;10388;52.314;7.938;2023-09-19T02:25:19;9.17;;;3.37;;
20458;SDS011;10388;52.314;7.938;2023-09-19T02:27:50;5.47;;;2.20;;
20458;SDS011;10388;52.314;7.938;2023-09-19T02:30:21;10.50;;;3.07;;
20458;SDS011;10388;52.314;7.938;2023-09-19T02:32:55;5.23;;;2.27;;
20458;SDS011;10388;52.314;7.938;2023-09-19T02:35:26;4.70;;;2.17;;
20458;SDS011;10388;52.314;7.938;2023-09-19T02:37:58;4.80;;;2.30;;
20458;SDS011;10388;52.314;7.938;2023-09-19T02:40:31;10.07;;;2.70;;
20458;SDS011;10388;52.314;7.938;2023-09-19T02:43:05;7.90;;;2.80;;
20458;SDS011;10388;52.314;7.938;2023-09-19T02:45:38;6.23;;;2.30;;
20458;SDS011;10388;52.314;7.938;2023-09-19T02:48:09;10.23;;;2.60;;
20458;SDS011;10388;52.314;7.938;2023-09-19T02:50:42;5.90;;;1.97;;
20458;SDS011;10388;52.314;7.938;2023-09-19T02:53:19;5.73;;;2.30;;
20458;SDS011;10388;52.314;7.938;2023-09-19T02:55:50;8.30;;;2.23;;
20458;SDS011;10388;52.314;7.938;2023-09-19T02:58:24;11.60;;;2.60;;
20458;SDS011;10388;52.314;7.938;2023-09-19T03:00:55;10.67;;;2.67;;
20458;SDS011;10388;52.314;7.938;2023-09-19T03:03:25;10.03;;;2.37;;
20458;SDS011;10388;52.314;7.938;2023-09-19T03:06:01;7.67;;;2.63;;
20458;SDS011;10388;52.314;7.938;2023-09-19T03:08:35;8.40;;;2.83;;
20458;SDS011;10388;52.314;7.938;2023-09-19T03:11:20;7.27;;;2.37;;
20458;SDS011;10388;52.314;7.938;2023-09-19T03:13:53;5.93;;;2.67;;
20458;SDS011;10388;52.314;7.938;2023-09-19T03:16:24;4.90;;;2.30;;
20458;SDS011;10388;52.314;7.938;2023-09-19T03:18:55;8.37;;;2.27;;
20458;SDS011;10388;52.314;7.938;2023-09-19T03:21:25;6.87;;;2.73;;
20458;SDS011;10388;52.314;7.938;2023-09-19T03:23:56;6.23;;;2.10;;
20458;SDS011;10388;52.314;7.938;2023-09-19T03:26:27;6.47;;;2.40;;
20458;SDS011;10388;52.314;7.938;2023-09-19T03:28:57;11.63;;;3.23;;
20458;SDS011;10388;52.314;7.938;2023-09-19T03:31:28;7.90;;;2.40;;
20458;SDS011;10388;52.314;7.938;2023-09-19T03:33:59;8.17;;;2.27;;
20458;SDS011;10388;52.314;7.938;2023-09-19T03:36:30;9.20;;;2.60;;
20458;SDS011;10388;52.314;7.938;2023-09-19T03:39:01;9.27;;;2.87;;
20458;SDS011;10388;52.314;7.938;2023-09-19T03:41:34;7.87;;;2.97;;
20458;SDS011;10388;52.314;7.938;2023-09-19T03:44:06;9.77;;;2.87;;
20458;SDS011;10388;52.314;7.938;2023-09-19T03:46:37;8.13;;;3.00;;
20458;SDS011;10388;52.314;7.938;2023-09-19T03:49:08;8.93;;;2.40;;
20458;SDS011;10388;52.314;7.938;2023-09-19T03:51:40;10.47;;;3.00;;
20458;SDS011;10388;52.314;7.938;2023-09-19T03:54:11;7.63;;;2.60;;
20458;SDS011;10388;52.314;7.938;2023-09-19T03:56:42;10.97;;;3.30;;
20458;SDS011;10388;52.314;7.938;2023-09-19T03:59:13;9.63;;;2.70;;
20458;SDS011;10388;52.314;7.938;2023-09-19T04:01:44;6.77;;;2.57;;
20458;SDS011;10388;52.314;7.938;2023-09-19T04:04:15;8.37;;;2.80;;
20458;SDS011;10388;52.314;7.938;2023-09-19T04:06:48;8.50;;;2.53;;
20458;SDS011;10388;52.314;7.938;2023-09-19T04:09:19;9.20;;;3.23;;
20458;SDS011;10388;52.314;7.938;2023-09-19T04:11:52;8.37;;;2.83;;
20458;SDS011;10388;52.314;7.938;2023-09-19T04:14:32;8.13;;;3.13;;
20458;SDS011;10388;52.314;7.938;2023-09-19T04:17:03;8.63;;;2.53;;
20458;SDS011;10388;52.314;7.938;2023-09-19T04:19:35;5.73;;;2.27;;
20458;SDS011;10388;52.314;7.938;2023-09-19T04:22:05;7.53;;;2.30;;
20458;SDS011;10388;52.314;7.938;2023-09-19T04:24:36;7.53;;;2.70;;
20458;SDS011;10388;52.314;7.938;2023-09-19T04:27:09;8.53;;;2.83;;
20458;SDS011;10388;52.314;7.938;2023-09-19T04:29:47;4.83;;;2.20;;
20458;SDS011;10388;52.314;7.938;2023-09-19T04:32:28;6.23;;;2.20;;
20458;SDS011;10388;52.314;7.938;2023-09-19T04:34:59;8.27;;;2.80;;
20458;SDS011;10388;52.314;7.938;2023-09-19T04:37:33;7.13;;;2.53;;
20458;SDS011;10388;52.314;7.938;2023-09-19T04:40:06;9.23;;;2.40;;
20458;SDS011;10388;52.314;7.938;2023-09-19T04:42:52;6.73;;;2.70;;
20458;SDS011;10388;52.314;7.938;2023-09-19T04:45:34;7.97;;;2.70;;
20458;SDS011;10388;52.314;7.938;2023-09-19T04:48:08;8.10;;;2.37;;
20458;SDS011;10388;52.314;7.938;2023-09-19T04:50:41;8.97;;;2.40;;
20458;SDS011;10388;52.314;7.938;2023-09-19T04:53:13;5.30;;;2.33;;
20458;SDS011;10388;52.314;7.938;2023-09-19T04:55:52;6.63;;;2.47;;
20458;SDS011;10388;52.314;7.938;2023-09-19T04:58:26;6.27;;;2.40;;
20458;SDS011;10388;52.314;7.938;2023-09-19T05:00:59;5.60;;;2.40;;
20458;SDS011;10388;52.314;7.938;2023-09-19T05:03:43;3.60;;;1.80;;
20458;SDS011;10388;52.314;7.938;2023-09-19T05:06:21;8.00;;;2.60;;
20458;SDS011;10388;52.314;7.938;2023-09-19T05:08:52;10.03;;;3.10;;
20458;SDS011;10388;52.314;7.938;2023-09-19T05:11:34;9.40;;;2.50;;
20458;SDS011;10388;52.314;7.938;2023-09-19T05:14:11;5.67;;;2.00;;
20458;SDS011;10388;52.314;7.938;2023-09-19T05:16:41;5.23;;;2.07;;
20458;SDS011;10388;52.314;7.938;2023-09-19T05:19:15;6.60;;;2.07;;
20458;SDS011;10388;52.314;7.938;2023-09-19T05:21:48;6.63;;;2.30;;
20458;SDS011;10388;52.314;7.938;2023-09-19T05:24:21;5.17;;;2.03;;
20458;SDS011;10388;52.314;7.938;2023-09-19T05:26:56;5.93;;;2.27;;
20458;SDS011;10388;52.314;7.938;2023-09-19T05:29:30;6.33;;;2.20;;
20458;SDS011;10388;52.314;7.938;2023-09-19T05:32:04;8.70;;;2.30;;
20458;SDS011;10388;52.314;7.938;2023-09-19T05:35:08;8.87;;;2.77;;
20458;SDS011;10388;52.314;7.938;2023-09-19T05:37:33;4.70;;;1.80;;
20458;SDS011;10388;52.314;7.938;2023-09-19T05:40:21;6.70;;;2.30;;
20458;SDS011;10388;52.314;7.938;2023-09-19T05:42:57;6.00;;;2.20;;
20458;SDS011;10388;52.314;7.938;2023-09-19T05:45:27;5.27;;;2.10;;
20458;SDS011;10388;52.314;7.938;2023-09-19T05:48:07;4.97;;;2.03;;
20458;SDS011;10388;52.314;7.938;2023-09-19T05:50:51;10.60;;;2.33;;
20458;SDS011;10388;52.314;7.938;2023-09-19T05:53:21;7.90;;;2.30;;
20458;SDS011;10388;52.314;7.938;2023-09-19T05:55:56;4.93;;;2.10;;
20458;SDS011;10388;52.314;7.938;2023-09-19T05:58:50;7.53;;;2.37;;
20458;SDS011;10388;52.314;7.938;2023-09-19T06:01:24;9.13;;;2.33;;
20458;SDS011;10388;52.314;7.938;2023-09-19T06:03:55;10.40;;;2.37;;
20458;SDS011;10388;52.314;7.938;2023-09-19T06:06:26;7.23;;;2.23;;
20458;SDS011;10388;52.314;7.938;2023-09-19T06:08:56;8.10;;;2.63;;
20458;SDS011;10388;52.314;7.938;2023-09-19T06:11:30;8.10;;;2.53;;
20458;SDS011;10388;52.314;7.938;2023-09-19T06:14:04;4.63;;;1.90;;
20458;SDS011;10388;52.314;7.938;2023-09-19T06:16:46;4.43;;;1.90;;
20458;SDS011;10388;52.314;7.938;2023-09-19T06:23:38;10.17;;;2.30;;
20458;SDS011;10388;52.314;7.938;2023-09-19T06:26:09;6.93;;;2.20;;
20458;SDS011;10388;52.314;7.938;2023-09-19T06:28:39;7.33;;;2.03;;
20458;SDS011;10388;52.314;7.938;2023-09-19T06:31:11;5.97;;;2.20;;
20458;SDS011;10388;52.314;7.938;2023-09-19T06:33:42;7.50;;;2.10;;
20458;SDS011;10388;52.314;7.938;2023-09-19T06:36:13;7.33;;;2.10;;
20458;SDS011;10388;52.314;7.938;2023-09-19T06:38:43;4.83;;;1.77;;
20458;SDS011;10388;52.314;7.938;2023-09-19T06:41:14;5.73;;;2.00;;
20458;SDS011;10388;52.314;7.938;2023-09-19T06:43:47;6.33;;;1.70;;
20458;SDS011;10388;52.314;7.938;2023-09-19T06:46:17;5.57;;;1.93;;
20458;SDS011;10388;52.314;7.938;2023-09-19T06:48:48;2.97;;;1.40;;
20458;SDS011;10388;52.314;7.938;2023-09-19T06:51:19;8.50;;;2.00;;
20458;SDS011;10388;52.314;7.938;2023-09-19T06:53:50;5.67;;;1.90;;
20458;SDS011;10388;52.314;7.938;2023-09-19T06:56:24;7.20;;;2.27;;
20458;SDS011;10388;52.314;7.938;2023-09-19T06:58:55;7.03;;;1.87;;
20458;SDS011;10388;52.314;7.938;2023-09-19T07:01:26;5.63;;;1.90;;
20458;SDS011;10388;52.314;7.938;2023-09-19T07:03:57;4.10;;;1.97;;
20458;SDS011;10388;52.314;7.938;2023-09-19T07:06:27;6.27;;;1.90;;
20458;SDS011;10388;52.314;7.938;2023-09-19T07:08:58;4.60;;;1.87;;
20458;SDS011;10388;52.314;7.938;2023-09-19T07:11:29;5.87;;;2.27;;
20458;SDS011;10388;52.314;7.938;2023-09-19T07:14:01;5.90;;;2.00;;
20458;SDS011;10388;52.314;7.938;2023-09-19T07:16:33;5.57;;;2.30;;
20458;SDS011;10388;52.314;7.938;2023-09-19T07:19:04;4.57;;;1.73;;
20458;SDS011;10388;52.314;7.938;2023-09-19T07:21:35;8.50;;;1.90;;
20458;SDS011;10388;52.314;7.938;2023-09-19T07:24:06;6.50;;;2.23;;
20458;SDS011;10388;52.314;7.938;2023-09-19T07:26:38;7.40;;;2.07;;
20458;SDS011;10388;52.314;7.938;2023-09-19T07:29:13;3.43;;;1.50;;
20458;SDS011;10388;52.314;7.938;2023-09-19T07:31:43;7.63;;;2.47;;
20458;SDS011;10388;52.314;7.938;2023-09-19T07:34:14;5.60;;;1.77;;
20458;SDS011;10388;52.314;7.938;2023-09-19T07:36:45;5.77;;;1.90;;
20458;SDS011;10388;52.314;7.938;2023-09-19T07:39:17;4.30;;;1.80;;
20458;SDS011;10388;52.314;7.938;2023-09-19T07:41:48;11.33;;;2.60;;
20458;SDS011;10388;52.314;7.938;2023-09-19T07:44:19;7.93;;;2.07;;
20458;SDS011;10388;52.314;7.938;2023-09-19T07:46:50;6.50;;;2.20;;
20458;SDS011;10388;52.314;7.938;2023-09-19T07:49:21;5.13;;;1.80;;
20458;SDS011;10388;52.314;7.938;2023-09-19T07:51:51;8.13;;;2.20;;
20458;SDS011;10388;52.314;7.938;2023-09-19T07:54:24;7.17;;;1.80;;
20458;SDS011;10388;52.314;7.938;2023-09-19T07:56:55;7.60;;;2.10;;
20458;SDS011;10388;52.314;7.938;2023-09-19T07:59:26;5.43;;;1.73;;
20458;SDS011;10388;52.314;7.938;2023-09-19T08:01:56;6.83;;;1.80;;
20458;SDS011;10388;52.314;7.938;2023-09-19T08:04:33;6.67;;;2.07;;
20458;SDS011;10388;52.314;7.938;2023-09-19T08:07:03;6.80;;;2.17;;
20458;SDS011;10388;52.314;7.938;2023-09-19T08:09:35;4.90;;;1.77;;
20458;SDS011;10388;52.314;7.938;2023-09-19T08:12:08;4.60;;;1.73;;
20458;SDS011;10388;52.314;7.938;2023-09-19T08:14:40;7.73;;;2.20;;
20458;SDS011;10388;52.314;7.938;2023-09-19T08:17:13;5.00;;;1.77;;
20458;SDS011;10388;52.314;7.938;2023-09-19T08:19:45;5.30;;;2.00;;
20458;SDS011;10388;52.314;7.938;2023-09-19T08:22:16;6.57;;;1.93;;
20458;SDS011;10388;52.314;7.938;2023-09-19T08:24:47;3.97;;;1.50;;
20458;SDS011;10388;52.314;7.938;2023-09-19T08:27:17;6.07;;;2.23;;
20458;SDS011;10388;52.314;7.938;2023-09-19T08:29:49;6.70;;;2.10;;
20458;SDS011;10388;52.314;7.938;2023-09-19T08:32:21;4.63;;;1.73;;
20458;SDS011;10388;52.314;7.938;2023-09-19T08:34:54;7.37;;;1.87;;
20458;SDS011;10388;52.314;7.938;2023-09-19T08:37:25;8.30;;;2.03;;
20458;SDS011;10388;52.314;7.938;2023-09-19T08:39:55;3.57;;;1.93;;
20458;SDS011;10388;52.314;7.938;2023-09-19T08:42:26;7.33;;;2.07;;
20458;SDS011;10388;52.314;7.938;2023-09-19T08:44:57;6.83;;;2.27;;
20458;SDS011;10388;52.314;7.938;2023-09-19T08:47:34;3.90;;;1.73;;
20458;SDS011;10388;52.314;7.938;2023-09-19T08:50:11;7.80;;;2.00;;
20458;SDS011;10388;52.314;7.938;2023-09-19T08:53:05;5.73;;;2.03;;
20458;SDS011;10388;52.314;7.938;2023-09-19T08:55:42;5.83;;;2.17;;
20458;SDS011;10388;52.314;7.938;2023-09-19T08:58:16;6.63;;;2.00;;
20458;SDS011;10388;52.314;7.938;2023-09-19T09:00:49;6.07;;;2.20;;
20458;SDS011;10388;52.314;7.938;2023-09-19T09:03:22;6.47;;;2.20;;
20458;SDS011;10388;52.314;7.938;2023-09-19T09:05:55;6.53;;;1.93;;
20458;SDS011;10388;52.314;7.938;2023-09-19T09:08:26;7.13;;;2.13;;
20458;SDS011;10388;52.314;7.938;2023-09-19T09:10:58;4.87;;;2.13;;
20458;SDS011;10388;52.314;7.938;2023-09-19T09:13:29;5.03;;;1.90;;
20458;SDS011;10388;52.314;7.938;2023-09-19T09:16:00;6.97;;;2.47;;
20458;SDS011;10388;52.314;7.938;2023-09-19T09:18:31;6.00;;;2.33;;
20458;SDS011;10388;52.314;7.938;2023-09-19T09:21:02;4.97;;;2.30;;
20458;SDS011;10388;52.314;7.938;2023-09-19T09:23:34;4.90;;;2.03;;
20458;SDS011;10388;52.314;7.938;2023-09-19T09:26:04;6.30;;;2.53;;
20458;SDS011;10388;52.314;7.938;2023-09-19T09:28:38;5.33;;;2.07;;
20458;SDS011;10388;52.314;7.938;2023-09-19T09:31:24;5.03;;;2.17;;
20458;SDS011;10388;52.314;7.938;2023-09-19T09:33:56;4.70;;;2.00;;
20458;SDS011;10388;52.314;7.938;2023-09-19T09:36:37;7.17;;;2.17;;
20458;SDS011;10388;52.314;7.938;2023-09-19T09:39:11;6.57;;;2.27;;
20458;SDS011;10388;52.314;7.938;2023-09-19T09:41:54;4.57;;;2.00;;
20458;SDS011;10388;52.314;7.938;2023-09-19T09:44:25;8.50;;;2.23;;
20458;SDS011;10388;52.314;7.938;2023-09-19T09:46:57;6.60;;;2.40;;
20458;SDS011;10388;52.314;7.938;2023-09-19T09:49:50;6.37;;;1.97;;
20458;SDS011;10388;52.314;7.938;2023-09-19T09:52:24;7.63;;;1.90;;
20458;SDS011;10388;52.314;7.938;2023-09-19T09:54:59;7.13;;;1.80;;
20458;SDS011;10388;52.314;7.938;2023-09-19T09:57:35;7.73;;;2.00;;
20458;SDS011;10388;52.314;7.938;2023-09-19T10:00:06;5.13;;;1.77;;
20458;SDS011;10388;52.314;7.938;2023-09-19T10:02:43;4.67;;;2.10;;
20458;SDS011;10388;52.314;7.938;2023-09-19T10:05:17;7.73;;;1.90;;
20458;SDS011;10388;52.314;7.938;2023-09-19T10:07:58;7.40;;;1.90;;
20458;SDS011;10388;52.314;7.938;2023-09-19T10:10:42;5.90;;;2.00;;
20458;SDS011;10388;52.314;7.938;2023-09-19T10:13:13;7.47;;;2.03;;
20458;SDS011;10388;52.314;7.938;2023-09-19T10:15:49;4.90;;;2.17;;
20458;SDS011;10388;52.314;7.938;2023-09-19T10:18:21;3.90;;;1.80;;
20458;SDS011;10388;52.314;7.938;2023-09-19T10:20:56;4.33;;;1.83;;
20458;SDS011;10388;52.314;7.938;2023-09-19T10:23:27;5.20;;;2.00;;
20458;SDS011;10388;52.314;7.938;2023-09-19T10:26:04;4.27;;;1.60;;
20458;SDS011;10388;52.314;7.938;2023-09-19T10:28:36;8.10;;;2.00;;
20458;SDS011;10388;52.314;7.938;2023-09-19T10:31:08;4.93;;;2.20;;
20458;SDS011;10388;52.314;7.938;2023-09-19T10:33:39;4.30;;;2.07;;
20458;SDS011;10388;52.314;7.938;2023-09-19T10:36:24;5.93;;;2.27;;
20458;SDS011;10388;52.314;7.938;2023-09-19T10:38:56;8.60;;;1.83;;
20458;SDS011;10388;52.314;7.938;2023-09-19T10:41:51;4.20;;;1.70;;
20458;SDS011;10388;52.314;7.938;2023-09-19T10:44:24;5.17;;;2.30;;
20458;SDS011;10388;52.314;7.938;2023-09-19T10:46:56;6.13;;;2.07;;
20458;SDS011;10388;52.314;7.938;2023-09-19T10:49:27;7.37;;;1.90;;
20458;SDS011;10388;52.314;7.938;2023-09-19T10:51:58;6.10;;;2.17;;
20458;SDS011;10388;52.314;7.938;2023-09-19T10:54:32;3.97;;;1.70;;
20458;SDS011;10388;52.314;7.938;2023-09-19T10:57:07;5.90;;;1.80;;
20458;SDS011;10388;52.314;7.938;2023-09-19T10:59:39;6.37;;;1.87;;
20458;SDS011;10388;52.314;7.938;2023-09-19T11:02:32;5.20;;;1.90;;
20458;SDS011;10388;52.314;7.938;2023-09-19T11:05:13;5.30;;;2.30;;
20458;SDS011;10388;52.314;7.938;2023-09-19T11:07:56;6.90;;;2.07;;
20458;SDS011;10388;52.314;7.938;2023-09-19T11:10:44;5.33;;;2.03;;
20458;SDS011;10388;52.314;7.938;2023-09-19T11:13:26;3.50;;;1.83;;
20458;SDS011;10388;52.314;7.938;2023-09-19T11:27:09;5.90;;;2.27;;
20458;SDS011;10388;52.314;7.938;2023-09-19T11:29:44;5.57;;;2.10;;
20458;SDS011;10388;52.314;7.938;2023-09-19T11:32:15;5.37;;;2.23;;
20458;SDS011;10388;52.314;7.938;2023-09-19T11:34:47;5.00;;;1.80;;
20458;SDS011;10388;52.314;7.938;2023-09-19T11:40:06;6.23;;;2.37;;
20458;SDS011;10388;52.314;7.938;2023-09-19T11:42:47;7.57;;;2.43;;
20458;SDS011;10388;52.314;7.938;2023-09-19T11:48:26;9.30;;;2.30;;
20458;SDS011;10388;52.314;7.938;2023-09-19T11:50:58;4.70;;;2.10;;
20458;SDS011;10388;52.314;7.938;2023-09-19T11:53:32;5.93;;;1.67;;
20458;SDS011;10388;52.314;7.938;2023-09-19T11:56:06;7.13;;;2.40;;
20458;SDS011;10388;52.314;7.938;2023-09-19T11:58:40;7.13;;;2.67;;
20458;SDS011;10388;52.314;7.938;2023-09-19T12:01:13;8.30;;;2.87;;
20458;SDS011;10388;52.314;7.938;2023-09-19T12:03:45;7.90;;;2.20;;
20458;SDS011;10388;52.314;7.938;2023-09-19T12:06:20;6.10;;;2.03;;
20458;SDS011;10388;52.314;7.938;2023-09-19T12:08:52;8.30;;;2.73;;
20458;SDS011;10388;52.314;7.938;2023-09-19T12:11:30;8.67;;;2.57;;
20458;SDS011;10388;52.314;7.938;2023-09-19T12:14:03;6.60;;;1.87;;
20458;SDS011;10388;52.314;7.938;2023-09-19T12:16:34;6.10;;;2.00;;
20458;SDS011;10388;52.314;7.938;2023-09-19T12:19:19;4.83;;;1.70;;
20458;SDS011;10388;52.314;7.938;2023-09-19T12:21:58;5.50;;;2.07;;
20458;SDS011;10388;52.314;7.938;2023-09-19T12:24:29;3.83;;;1.67;;
20458;SDS011;10388;52.314;7.938;2023-09-19T12:27:00;4.83;;;2.10;;
20458;SDS011;10388;52.314;7.938;2023-09-19T12:29:48;7.60;;;2.30;;
20458;SDS011;10388;52.314;7.938;2023-09-19T12:32:19;6.80;;;2.17;;
20458;SDS011;10388;52.314;7.938;2023-09-19T12:35:10;5.23;;;2.20;;
20458;SDS011;10388;52.314;7.938;2023-09-19T12:37:58;4.73;;;2.07;;
20458;SDS011;10388;52.314;7.938;2023-09-19T12:40:28;4.73;;;1.93;;
20458;SDS011;10388;52.314;7.938;2023-09-19T12:43:03;4.70;;;1.67;;
20458;SDS011;10388;52.314;7.938;2023-09-19T12:45:34;7.50;;;2.37;;
20458;SDS011;10388;52.314;7.938;2023-09-19T12:48:26;5.30;;;1.90;;
20458;SDS011;10388;52.314;7.938;2023-09-19T12:51:07;6.60;;;1.90;;
20458;SDS011;10388;52.314;7.938;2023-09-19T12:53:42;4.57;;;2.00;;
20458;SDS011;10388;52.314;7.938;2023-09-19T12:56:15;4.80;;;1.97;;
20458;SDS011;10388;52.314;7.938;2023-09-19T12:58:48;4.77;;;1.90;;
20458;SDS011;10388;52.314;7.938;2023-09-19T13:01:26;7.33;;;2.20;;
20458;SDS011;10388;52.314;7.938;2023-09-19T13:06:50;7.00;;;2.10;;
20458;SDS011;10388;52.314;7.938;2023-09-19T13:09:22;6.63;;;2.00;;
20458;SDS011;10388;52.314;7.938;2023-09-19T13:11:58;8.23;;;2.23;;
20458;SDS011;10388;52.314;7.938;2023-09-19T13:14:29;3.57;;;1.90;;
20458;SDS011;10388;52.314;7.938;2023-09-19T13:17:10;6.57;;;1.80;;
20458;SDS011;10388;52.314;7.938;2023-09-19T13:19:50;5.80;;;1.73;;
20458;SDS011;10388;52.314;7.938;2023-09-19T13:22:37;5.97;;;1.77;;
20458;SDS011;10388;52.314;7.938;2023-09-19T13:25:19;4.23;;;1.77;;
20458;SDS011;10388;52.314;7.938;2023-09-19T13:27:54;5.53;;;1.90;;
20458;SDS011;10388;52.314;7.938;2023-09-19T13:30:26;4.17;;;1.60;;
20458;SDS011;10388;52.314;7.938;2023-09-19T13:33:09;3.90;;;1.67;;
20458;SDS011;10388;52.314;7.938;2023-09-19T13:35:40;5.23;;;1.50;;
20458;SDS011;10388;52.314;7.938;2023-09-19T13:38:11;3.67;;;1.63;;
20458;SDS011;10388;52.314;7.938;2023-09-19T13:40:42;4.23;;;1.73;;
20458;SDS011;10388;52.314;7.938;2023-09-19T13:43:13;7.60;;;1.87;;
20458;SDS011;10388;52.314;7.938;2023-09-19T13:45:43;7.63;;;2.23;;
20458;SDS011;10388;52.314;7.938;2023-09-19T13:48:14;5.00;;;1.70;;
20458;SDS011;10388;52.314;7.938;2023-09-19T13:50:44;6.53;;;1.80;;
20458;SDS011;10388;52.314;7.938;2023-09-19T13:53:15;5.30;;;1.67;;
20458;SDS011;10388;52.314;7.938;2023-09-19T13:55:46;4.93;;;1.60;;
20458;SDS011;10388;52.314;7.938;2023-09-19T13:58:18;4.53;;;1.73;;
20458;SDS011;10388;52.314;7.938;2023-09-19T14:00:49;4.40;;;1.83;;
20458;SDS011;10388;52.314;7.938;2023-09-19T14:03:19;4.03;;;1.60;;
20458;SDS011;10388;52.314;7.938;2023-09-19T14:05:51;8.47;;;2.17;;
20458;SDS011;10388;52.314;7.938;2023-09-19T14:08:22;6.30;;;2.10;;
20458;SDS011;10388;52.314;7.938;2023-09-19T14:10:53;6.03;;;1.80;;
20458;SDS011;10388;52.314;7.938;2023-09-19T14:13:24;11.13;;;2.10;;
20458;SDS011;10388;52.314;7.938;2023-09-19T14:15:55;5.00;;;2.17;;
20458;SDS011;10388;52.314;7.938;2023-09-19T14:18:26;3.53;;;1.50;;
20458;SDS011;10388;52.314;7.938;2023-09-19T14:20:56;6.10;;;2.10;;
20458;SDS011;10388;52.314;7.938;2023-09-19T14:23:27;6.50;;;1.73;;
20458;SDS011;10388;52.314;7.938;2023-09-19T14:26:00;4.17;;;1.70;;
20458;SDS011;10388;52.314;7.938;2023-09-19T14:28:31;4.27;;;2.10;;
20458;SDS011;10388;52.314;7.938;2023-09-19T14:31:10;6.53;;;2.80;;
20458;SDS011;10388;52.314;7.938;2023-09-19T14:33:41;3.43;;;1.70;;
20458;SDS011;10388;52.314;7.938;2023-09-19T14:36:11;5.33;;;1.97;;
20458;SDS011;10388;52.314;7.938;2023-09-19T14:38:43;6.87;;;2.10;;
20458;SDS011;10388;52.314;7.938;2023-09-19T14:41:14;5.03;;;1.87;;
20458;SDS011;10388;52.314;7.938;2023-09-19T14:43:44;5.40;;;1.87;;
20458;SDS011;10388;52.314;7.938;2023-09-19T14:46:15;6.73;;;1.80;;
20458;SDS011;10388;52.314;7.938;2023-09-19T14:48:46;4.10;;;1.90;;
20458;SDS011;10388;52.314;7.938;2023-09-19T14:51:19;3.67;;;1.50;;
20458;SDS011;10388;52.314;7.938;2023-09-19T14:53:49;4.47;;;1.87;;
20458;SDS011;10388;52.314;7.938;2023-09-19T14:56:20;7.87;;;1.60;;
20458;SDS011;10388;52.314;7.938;2023-09-19T14:58:53;3.90;;;1.77;;
20458;SDS011;10388;52.314;7.938;2023-09-19T15:01:24;4.13;;;1.57;;
20458;SDS011;10388;52.314;7.938;2023-09-19T15:03:54;4.73;;;1.60;;
20458;SDS011;10388;52.314;7.938;2023-09-19T15:06:25;3.60;;;1.60;;
20458;SDS011;10388;52.314;7.938;2023-09-19T15:08:56;3.90;;;1.70;;
20458;SDS011;10388;52.314;7.938;2023-09-19T15:11:27;8.57;;;1.83;;
20458;SDS011;10388;52.314;7.938;2023-09-19T15:13:58;4.17;;;1.53;;
20458;SDS011;10388;52.314;7.938;2023-09-19T15:16:29;6.37;;;1.57;;
20458;SDS011;10388;52.314;7.938;2023-09-19T15:19:00;3.23;;;1.53;;
20458;SDS011;10388;52.314;7.938;2023-09-19T15:21:30;3.60;;;1.50;;
20458;SDS011;10388;52.314;7.938;2023-09-19T15:24:01;4.10;;;1.60;;
20458;SDS011;10388;52.314;7.938;2023-09-19T15:26:32;4.17;;;1.57;;
20458;SDS011;10388;52.314;7.938;2023-09-19T15:29:03;3.70;;;1.57;;
20458;SDS011;10388;52.314;7.938;2023-09-19T15:31:35;5.53;;;1.47;;
20458;SDS011;10388;52.314;7.938;2023-09-19T15:34:09;5.57;;;1.30;;
20458;SDS011;10388;52.314;7.938;2023-09-19T15:36:44;8.80;;;2.10;;
20458;SDS011;10388;52.314;7.938;2023-09-19T15:39:14;2.47;;;1.10;;
20458;SDS011;10388;52.314;7.938;2023-09-19T15:41:46;4.20;;;1.60;;
20458;SDS011;10388;52.314;7.938;2023-09-19T15:44:19;3.60;;;1.53;;
20458;SDS011;10388;52.314;7.938;2023-09-19T15:46:50;2.60;;;1.20;;
20458;SDS011;10388;52.314;7.938;2023-09-19T15:49:20;3.30;;;1.30;;
20458;SDS011;10388;52.314;7.938;2023-09-19T15:51:52;2.83;;;1.47;;
20458;SDS011;10388;52.314;7.938;2023-09-19T15:54:23;2.73;;;1.17;;
20458;SDS011;10388;52.314;7.938;2023-09-19T15:56:56;4.27;;;1.30;;
20458;SDS011;10388;52.314;7.938;2023-09-19T15:59:27;2.63;;;1.13;;
20458;SDS011;10388;52.314;7.938;2023-09-19T16:02:00;4.47;;;1.13;;
20458;SDS011;10388;52.314;7.938;2023-09-19T16:04:30;4.30;;;1.33;;
20458;SDS011;10388;52.314;7.938;2023-09-19T16:07:01;2.23;;;1.10;;
20458;SDS011;10388;52.314;7.938;2023-09-19T16:09:33;1.37;;;0.80;;
20458;SDS011;10388;52.314;7.938;2023-09-19T16:12:05;2.87;;;0.93;;
20458;SDS011;10388;52.314;7.938;2023-09-19T16:14:36;2.20;;;0.93;;
20458;SDS011;10388;52.314;7.938;2023-09-19T16:17:07;3.33;;;1.30;;